• Join FlightAware (Why Join?)
  • Login
  • US Flag 
12:02AM EST


 

Airport Tracker/Info


-or-


 

Live Flight TrackerFlight Track Log ✈ GJS6221 ✈ 16-Aug-2013 ✈ CYUL - KLGA

Flight Track Log - Related Links

Times and Time Zones

All times are in EDT time to prevent confusion due to time zone crossing. See the GJS6221 flight status page for this flight to view local times or setup timezone preferences in your user account.

Time Position Orientation Groundspeed Altitude Reporting Facility
EDT Latitude Longitude Course Direction KTS MPH feet Rate Location/Type
07:14AM 45.4475 -73.7506 189° South 442 509 1,600  Level Boston Center
07:15AM 45.4094 -73.8000 222° Southwest 326 375 4,500 2,820 Climbing Boston Center
07:16AM 45.3547 -73.8578 217° Southwest 271 312 7,200 2,520 Climbing Boston Center
07:17AM 45.3019 -73.8978 208° Southwest 271 312 9,700 2,580 Climbing Boston Center
07:18AM 45.2117 -73.9572 205° Southwest 284 327 12,500 2,460 Climbing Boston Center
07:19AM 44.8599 -74.1003 189° South  Level FlightAware Approximate
07:19AM 45.1236 -74.0108 203° Southwest 319 367 14,700  Level Boston Center
07:20AM 45.0311 -74.0672 203° Southwest 345 397 17,600 2,640 Climbing Boston Center
07:21AM 44.9075 -74.1078 193° South 353 406 20,600 2,520 Climbing Boston Center
07:22AM 44.8000 -74.1333 190° South 370 426 22,500 1,800 Climbing Montreal Center
07:23AM 44.6833 -74.1333 180° South 390 449 24,100 1,560 Climbing Montreal Center
07:24AM 44.5667 -74.1167 174° South 410 472 25,700 1,440 Climbing Montreal Center
07:25AM 44.4764 -74.1014 173° South 421 484 27,200 1,260 Climbing Boston Center
07:26AM 44.3581 -74.0806 173° South 427 491 28,600 1,260 Climbing Boston Center
07:27AM 44.2375 -74.0597 173° South 432 497 30,000 1,500 Climbing Boston Center
07:28AM 44.0856 -74.0383 174° South 426 490 31,600 960 Climbing Boston Center
07:29AM 43.9650 -74.0178 173° South 426 490 32,000 180 Climbing Boston Center
07:30AM 43.8467 -73.9947 172° South 431 496 32,000 -60 Level Boston Center
07:31AM 43.7281 -73.9744 173° South 431 496 31,900 -540 Descending Boston Center
07:32AM 43.6200 -73.9572 173° South 431 496 31,000 -1,020 Descending Boston Center
07:33AM 43.5056 -73.9372 173° South 426 490 30,000 -1,020 Descending Boston Center
07:34AM 43.3767 -73.9169 173° South 426 490 28,900 -1,440 Descending Boston Center
07:35AM 43.2372 -73.8906 172° South 421 484 26,900 -1,740 Descending Boston Center
07:36AM 43.1292 -73.8711 173° South 421 484 25,400 -1,140 Descending Boston Center
07:38AM 43.0314 -73.8544 173° South 386 444 24,400 -1,020 Descending Boston Center
07:39AM 42.9192 -73.8378 174° South 357 411 23,200 -1,140 Descending Boston Center
07:40AM 42.8233 -73.8214 173° South 347 399 22,200 -600 Descending Boston Center
07:41AM 42.7528 -73.8058 171° South 347 399 22,000 -120 Descending Boston Center
07:42AM 42.6383 -73.7864 173° South 347 399 22,000 -60 Level Boston Center
07:43AM 42.5572 -73.7678 170° South 345 397 21,900 -660 Descending Boston Center
07:44AM 42.4617 -73.7486 172° South 340 391 20,800 -1,140 Descending Boston Center
07:45AM 42.3722 -73.7300 171° South 340 391 19,700 -960 Descending Boston Center
07:46AM 42.2808 -73.7083 170° South 335 386 18,900 -900 Descending Boston Center
07:47AM 42.1933 -73.6900 171° South 330 380 18,000 -480 Descending Boston Center
07:48AM 42.1039 -73.6742 173° South 330 380 18,000  Level Boston Center
07:49AM 42.0269 -73.6586 171° South 330 380 18,000  Level Boston Center
07:50AM 41.9286 -73.6931 195° South 308 354 18,000  Level Boston Center
07:51AM 41.8533 -73.7222 196° South 315 362 18,000  Level Boston Center
07:52AM 41.7633 -73.7567 196° South 320 368 18,000 -60 Level Boston Center
07:53AM 41.6881 -73.7856 196° South 320 368 17,900 -1,080 Descending Boston Center
07:54AM 41.5936 -73.8225 196° South 325 374 15,900 -2,040 Descending Boston Center
07:55AM 41.5000 -73.8500 192° South 302 348 13,700 -2,100 Descending New York TRACON
07:56AM 41.4333 -73.8667 191° South 299 344 11,700 -2,100 Descending New York TRACON
07:57AM 41.3500 -73.8167 156° South 304 350 9,500 -2,040 Descending New York TRACON
07:58AM 41.2833 -73.7500 143° Southeast 290 334 7,700 -1,680 Descending New York TRACON
07:59AM 41.2167 -73.6833 143° Southeast 271 312 6,200 -1,680 Descending New York TRACON
08:00AM 41.1667 -73.6333 143° Southeast 265 305 4,400 -1,200 Descending New York TRACON
08:01AM 41.1000 -73.6000 159° South 270 311 4,000 -240 Descending New York TRACON
08:02AM 41.0500 -73.6500 217° Southwest 262 302 4,000 -120 Level New York TRACON
08:03AM 40.9333 -73.7500 213° Southwest 205 236 3,700 -540 Descending New York TRACON
08:04AM 40.9000 -73.7833 217° Southwest 179 206 2,500 -1,020 Descending New York TRACON
08:05AM 40.8500 -73.8167 207° Southwest 175 201 1,700 -900 Descending New York TRACON
08:06AM 40.8167 -73.8500 217° Southwest 132 152 800 -900 Descending New York TRACON
08:08AM 40.7772 -73.8726 180° South  Level Estimated
08:15AM 40.7772 -73.8726 180° South  Level Estimated
08:16AM 40.7772 -73.8726 180° South  Level Estimated